Time;durP1;ratioP1;P1;durP2;ratioP2;P2;SDS_P1;SDS_P2;PMS_P1;PMS_P2;Temp;Humidity;BMP_temperature;BMP_pressure;BME280_temperature;BME280_humidity;BME280_pressure;Samples;Min_cycle;Max_cycle;Signal;HPM_P1;HPM_P2
2022/04/28 00:00:19;;;;;;;9.10;4.17;;;;;;;10.98;53.68;100932.98;1776014;80;21016;-61
2022/04/28 00:02:52;;;;;;;8.15;3.45;;;;;;;10.97;53.18;100940.88;1746958;81;20996;-60
2022/04/28 00:05:21;;;;;;;8.55;3.65;;;;;;;10.97;52.71;100940.03;1776151;81;21075;-59
2022/04/28 00:07:51;;;;;;;6.92;3.33;;;;;;;10.95;52.52;100939.37;1776236;81;21000;-61
2022/04/28 00:10:20;;;;;;;8.03;3.10;;;;;;;10.94;52.47;100944.52;1776116;81;21043;-59
2022/04/28 00:12:51;;;;;;;7.65;3.17;;;;;;;10.95;52.27;100946.22;1776206;81;21575;-59
2022/04/28 00:15:21;;;;;;;6.85;2.87;;;;;;;10.95;52.10;100944.84;1746593;81;21095;-59
2022/04/28 00:17:54;;;;;;;6.17;3.17;;;;;;;10.92;52.10;100943.85;1776120;80;21421;-60
2022/04/28 00:20:24;;;;;;;5.65;3.00;;;;;;;10.91;52.10;100940.78;1776102;80;21517;-60
2022/04/28 00:22:54;;;;;;;6.08;3.27;;;;;;;10.89;52.34;100953.30;1775935;81;20992;-60
2022/04/28 00:25:24;;;;;;;6.00;2.45;;;;;;;10.88;52.50;100943.38;1775777;80;21012;-61
2022/04/28 00:27:55;;;;;;;5.75;2.90;;;;;;;10.85;52.43;100941.00;1776179;80;21016;-60
2022/04/28 00:30:26;;;;;;;5.15;2.67;;;;;;;10.83;52.53;100945.82;1775880;81;21055;-60
2022/04/28 00:32:56;;;;;;;7.03;2.60;;;;;;;10.81;52.68;100941.05;1709909;83;21039;-60
2022/04/28 00:35:26;;;;;;;5.67;2.35;;;;;;;10.80;52.68;100944.30;1709676;84;21578;-60
2022/04/28 00:37:56;;;;;;;6.80;2.40;;;;;;;10.76;52.77;100947.60;1709651;84;21028;-60
2022/04/28 00:40:27;;;;;;;7.03;2.30;;;;;;;10.74;52.76;100944.20;1709797;84;21504;-60
2022/04/28 00:43:18;;;;;;;4.10;2.10;;;;;;;10.70;52.96;100946.97;1709924;84;21087;-60
2022/04/28 00:45:27;;;;;;;5.05;2.37;;;;;;;10.70;53.08;100943.72;1682993;84;21079;-61
2022/04/28 00:50:47;;;;;;;4.42;1.95;;;;;;;10.64;53.04;100943.60;1727990;81;21016;-60
2022/04/28 00:53:18;;;;;;;3.83;2.15;;;;;;;10.59;52.93;100939.20;1776001;80;21011;-60
2022/04/28 00:55:47;;;;;;;5.75;2.17;;;;;;;10.55;53.08;100943.34;1775936;81;21063;-60
2022/04/28 00:58:17;;;;;;;3.92;2.00;;;;;;;10.52;53.28;100947.82;1775971;81;21035;-60
2022/04/28 01:00:46;;;;;;;8.85;2.45;;;;;;;10.45;53.45;100940.86;1775828;80;21043;-61
2022/04/28 01:03:17;;;;;;;4.37;2.00;;;;;;;10.42;53.61;100943.45;1771119;80;21043;-59
2022/04/28 01:05:52;;;;;;;5.08;2.12;;;;;;;10.40;54.12;100943.27;1776010;80;20988;-59
2022/04/28 01:08:23;;;;;;;4.22;1.85;;;;;;;10.36;54.32;100944.14;1775918;80;20976;-60
2022/04/28 01:10:56;;;;;;;4.33;2.10;;;;;;;10.32;54.50;100945.55;1770801;81;21052;-60
2022/04/28 01:13:26;;;;;;;3.77;2.12;;;;;;;10.30;54.59;100939.40;1770923;80;20996;-59
2022/04/28 01:16:03;;;;;;;2.90;1.70;;;;;;;10.27;54.56;100950.72;1772558;81;21059;-61
2022/04/28 01:18:33;;;;;;;4.28;1.92;;;;;;;10.25;54.60;100945.09;1775881;81;21079;-60
2022/04/28 01:21:07;;;;;;;2.83;1.80;;;;;;;10.25;54.56;100938.24;1775845;81;20999;-63
2022/04/28 01:23:39;;;;;;;5.35;2.00;;;;;;;10.23;54.63;100940.31;1771144;81;21020;-61
2022/04/28 01:26:10;;;;;;;3.05;1.60;;;;;;;10.21;54.60;100943.75;1776077;81;21051;-60
2022/04/28 01:28:39;;;;;;;4.08;1.60;;;;;;;10.17;54.74;100941.34;1775940;81;21043;-60
2022/04/28 01:31:10;;;;;;;5.60;1.77;;;;;;;10.16;54.75;100945.63;1770874;80;20984;-62
2022/04/28 01:33:43;;;;;;;3.90;1.72;;;;;;;10.16;54.78;100945.11;1775759;81;21023;-61
2022/04/28 01:36:15;;;;;;;2.47;1.47;;;;;;;10.14;54.81;100940.34;1775855;80;21071;-60
2022/04/28 01:38:45;;;;;;;3.15;1.50;;;;;;;10.11;54.86;100939.33;1775827;81;21023;-60
2022/04/28 01:41:16;;;;;;;3.40;1.65;;;;;;;10.07;55.00;100937.14;1775940;80;20995;-61
2022/04/28 01:43:47;;;;;;;5.92;2.30;;;;;;;10.06;55.40;100940.91;1775865;80;21549;-61
2022/04/28 01:46:18;;;;;;;2.40;1.60;;;;;;;10.04;55.17;100938.87;1775781;80;21050;-61
2022/04/28 01:48:50;;;;;;;3.20;1.20;;;;;;;10.01;55.18;100941.45;1775684;80;21008;-61
2022/04/28 01:57:29;;;;;;;2.00;1.32;;;;;;;9.94;55.21;100939.63;1715118;84;21070;-60
2022/04/28 02:00:19;;;;;;;2.83;1.20;;;;;;;9.91;55.44;100935.88;1715423;83;21074;-60
2022/04/28 02:02:50;;;;;;;2.12;1.40;;;;;;;9.91;55.44;100937.24;1714908;84;21051;-60
2022/04/28 02:05:21;;;;;;;2.52;1.30;;;;;;;9.90;55.43;100934.17;1715063;84;21296;-62
2022/04/28 02:07:51;;;;;;;2.30;1.32;;;;;;;9.90;55.36;100932.80;1715099;83;21214;-60
2022/04/28 02:10:22;;;;;;;3.27;1.30;;;;;;;9.90;55.42;100937.76;1762199;81;21016;-61
2022/04/28 02:12:55;;;;;;;4.28;1.45;;;;;;;9.91;55.46;100941.34;1775997;81;20976;-61
2022/04/28 02:15:45;;;;;;;3.58;1.35;;;;;;;9.89;55.48;100935.20;1776097;80;21040;-60
2022/04/28 02:18:34;;;;;;;2.15;1.47;;;;;;;9.89;55.60;100938.80;1776130;81;21004;-60
2022/04/28 02:21:03;;;;;;;2.20;1.60;;;;;;;9.91;55.65;100938.09;1770995;80;21067;-59
2022/04/28 02:23:34;;;;;;;2.52;1.32;;;;;;;9.93;55.68;100931.07;1775951;81;21012;-60
2022/04/28 02:26:05;;;;;;;3.37;1.32;;;;;;;9.96;55.62;100938.92;1776369;80;21464;-59
2022/04/28 02:28:36;;;;;;;2.05;1.40;;;;;;;9.95;55.66;100939.95;1775988;81;21058;-60
2022/04/28 02:31:08;;;;;;;3.15;1.40;;;;;;;9.94;55.81;100940.47;1776277;80;21046;-60
2022/04/28 02:33:38;;;;;;;3.02;1.52;;;;;;;9.92;56.00;100941.17;1775996;80;21498;-60
2022/04/28 02:36:20;;;;;;;4.00;1.50;;;;;;;9.95;56.05;100944.06;1775809;80;20988;-60
2022/04/28 02:38:52;;;;;;;2.75;1.75;;;;;;;9.93;56.11;100940.66;1775985;81;21094;-59
2022/04/28 02:41:21;;;;;;;2.35;1.30;;;;;;;9.92;56.14;100949.37;1775933;81;21106;-60
2022/04/28 02:43:52;;;;;;;2.05;1.17;;;;;;;9.91;56.29;100942.20;1775958;80;20988;-60
2022/04/28 02:46:23;;;;;;;1.77;1.10;;;;;;;9.87;56.66;100947.70;1775886;81;21034;-60
2022/04/28 02:48:58;;;;;;;4.17;1.30;;;;;;;9.88;57.01;100945.81;1775459;81;21058;-60
2022/04/28 02:51:27;;;;;;;3.17;1.40;;;;;;;9.89;57.27;100942.05;1775968;81;21075;-61
2022/04/28 02:53:56;;;;;;;2.17;1.27;;;;;;;9.94;57.45;100945.09;1775970;81;20976;-60
2022/04/28 02:56:27;;;;;;;3.37;1.07;;;;;;;9.99;57.45;100953.10;1775996;80;21028;-60
2022/04/28 02:58:56;;;;;;;4.37;1.30;;;;;;;10.01;57.43;100951.55;1770941;80;21059;-60
2022/04/28 03:01:26;;;;;;;3.55;1.20;;;;;;;10.04;57.38;100951.19;1776256;80;21489;-61
2022/04/28 03:03:57;;;;;;;1.92;1.10;;;;;;;10.07;57.31;100950.83;1771287;80;21067;-60
2022/04/28 03:12:04;;;;;;;3.62;1.20;;;;;;;10.13;57.45;100954.21;1709756;84;20478;-60
2022/04/28 03:14:36;;;;;;;2.42;1.05;;;;;;;10.14;57.36;100956.77;1709909;84;21154;-61
2022/04/28 03:17:07;;;;;;;3.27;1.25;;;;;;;10.16;57.40;100958.80;1709524;84;21094;-60
2022/04/28 03:19:37;;;;;;;4.95;1.50;;;;;;;10.17;57.45;100959.14;1710038;84;21509;-62
2022/04/28 03:22:08;;;;;;;2.65;1.17;;;;;;;10.19;57.52;100960.33;1709780;84;21003;-61
2022/04/28 03:24:38;;;;;;;5.15;1.37;;;;;;;10.22;57.71;100966.84;1709678;84;21103;-59
2022/04/28 03:27:11;;;;;;;1.67;1.12;;;;;;;10.23;57.81;100972.66;1647741;87;21107;-60
2022/04/28 03:29:41;;;;;;;6.95;1.40;;;;;;;10.25;57.90;100968.37;1648062;87;21149;-61
2022/04/28 03:32:12;;;;;;;3.05;1.27;;;;;;;10.27;58.02;100976.73;1674400;85;21157;-60
2022/04/28 03:34:46;;;;;;;2.15;1.42;;;;;;;10.29;58.12;100982.89;1642472;87;21044;-59
2022/04/28 03:37:18;;;;;;;2.25;1.35;;;;;;;10.31;58.18;100979.97;1642709;87;21067;-60
2022/04/28 03:39:49;;;;;;;5.17;1.17;;;;;;;10.33;58.33;100982.01;1642637;87;21127;-61
2022/04/28 03:42:19;;;;;;;2.58;1.25;;;;;;;10.34;58.58;100976.34;1621062;87;21024;-61
2022/04/28 03:44:50;;;;;;;3.27;1.32;;;;;;;10.35;58.63;100978.56;1593933;87;21084;-60
2022/04/28 03:47:19;;;;;;;1.40;1.10;;;;;;;10.37;58.82;100976.50;1652981;85;21047;-61
2022/04/28 03:49:50;;;;;;;3.65;1.12;;;;;;;10.39;58.95;100980.77;1675456;85;21032;-61
2022/04/28 03:52:22;;;;;;;3.62;1.17;;;;;;;10.42;59.00;100986.42;1694866;82;21060;-61
2022/04/28 03:54:53;;;;;;;2.42;1.15;;;;;;;10.44;59.08;100985.20;1776236;81;21444;-60
2022/04/28 03:57:25;;;;;;;1.50;1.12;;;;;;;10.47;59.08;100990.84;1775802;81;21467;-60
2022/04/28 03:59:57;;;;;;;1.60;1.05;;;;;;;10.46;59.09;100990.50;1776148;80;21031;-61
2022/04/28 04:02:37;;;;;;;3.30;1.30;;;;;;;10.46;58.99;100997.36;1739527;81;21451;-61
2022/04/28 04:05:07;;;;;;;3.80;1.20;;;;;;;10.45;58.60;101002.50;1739158;82;21181;-60
2022/04/28 04:07:42;;;;;;;2.30;1.30;;;;;;;10.45;58.44;101003.34;1739301;82;21075;-60
2022/04/28 04:10:25;;;;;;;2.85;1.20;;;;;;;10.46;58.27;100996.84;1738603;82;21040;-61
2022/04/28 04:12:58;;;;;;;1.85;1.25;;;;;;;10.51;58.11;101000.40;1739158;82;21047;-61
2022/04/28 04:15:29;;;;;;;2.72;1.40;;;;;;;10.58;57.91;101011.48;1739302;82;21545;-59
2022/04/28 04:18:02;;;;;;;2.40;1.10;;;;;;;10.64;57.31;101014.86;1703648;84;21125;-62
2022/04/28 04:20:37;;;;;;;2.10;1.07;;;;;;;10.67;57.00;101026.31;1737992;82;21164;-61
2022/04/28 04:23:09;;;;;;;3.55;1.27;;;;;;;10.70;56.82;101037.42;1739346;82;21051;-60
2022/04/28 04:25:41;;;;;;;2.92;1.27;;;;;;;10.74;56.51;101042.88;1681214;85;21491;-61
2022/04/28 04:28:14;;;;;;;3.87;1.30;;;;;;;10.83;56.00;101039.55;1707075;84;21561;-60
2022/04/28 04:33:42;;;;;;;9.33;1.70;;;;;;;11.00;55.25;101044.70;1706756;84;21151;-60
2022/04/28 04:36:11;;;;;;;2.00;1.30;;;;;;;11.07;54.89;101046.22;1709607;84;21154;-62
2022/04/28 04:38:41;;;;;;;27.22;3.58;;;;;;;11.14;54.34;101046.34;1709885;84;21087;-62
2022/04/28 04:41:13;;;;;;;5.22;2.05;;;;;;;11.21;54.41;101044.03;1709469;84;21085;-60
2022/04/28 04:43:43;;;;;;;6.05;1.77;;;;;;;11.32;53.77;101039.98;1686225;84;21223;-60
2022/04/28 04:46:14;;;;;;;2.77;1.70;;;;;;;11.46;53.38;101041.89;1710613;84;21087;-62
2022/04/28 04:48:56;;;;;;;3.37;1.60;;;;;;;11.59;53.33;101037.97;1708603;84;21027;-60
2022/04/28 04:51:37;;;;;;;3.55;1.60;;;;;;;11.74;52.62;101036.11;1778442;81;21019;-62
2022/04/28 04:54:14;;;;;;;2.33;1.50;;;;;;;11.85;52.19;101040.30;1777934;80;21011;-60
2022/04/28 04:56:44;;;;;;;3.12;1.50;;;;;;;11.96;52.14;101041.71;1778177;80;21440;-61
2022/04/28 04:59:14;;;;;;;3.87;1.70;;;;;;;12.08;51.82;101041.55;1778101;80;20995;-61
2022/04/28 05:01:44;;;;;;;14.43;2.15;;;;;;;12.21;51.28;101051.86;1778007;80;21059;-62
2022/04/28 05:04:35;;;;;;;5.62;1.57;;;;;;;12.30;51.34;101053.45;1777943;80;20996;-61
2022/04/28 05:07:22;;;;;;;2.62;1.40;;;;;;;12.40;50.82;101047.67;1715706;83;21121;-61
2022/04/28 05:09:53;;;;;;;2.37;1.27;;;;;;;12.47;50.81;101049.45;1759500;81;21422;-60
2022/04/28 05:12:23;;;;;;;2.17;1.20;;;;;;;12.55;50.43;101058.09;1772986;80;20992;-63
2022/04/28 05:14:54;;;;;;;2.92;1.62;;;;;;;12.70;50.23;101057.00;1778237;80;21023;-61
2022/04/28 05:17:26;;;;;;;3.05;1.40;;;;;;;12.94;49.70;101056.28;1777970;80;21039;-61
2022/04/28 05:20:00;;;;;;;1.47;1.17;;;;;;;13.13;48.87;101056.16;1681756;84;21095;-61
2022/04/28 05:22:50;;;;;;;2.27;1.30;;;;;;;13.21;48.10;101062.93;1681985;85;21047;-60
2022/04/28 05:25:40;;;;;;;2.22;1.25;;;;;;;13.20;47.93;101066.20;1681741;85;21121;-60
2022/04/28 05:28:29;;;;;;;2.42;1.30;;;;;;;13.17;47.74;101069.88;1681823;85;21067;-61
2022/04/28 05:31:02;;;;;;;3.95;1.37;;;;;;;13.07;47.91;101072.09;1626914;88;21090;-62
2022/04/28 05:33:34;;;;;;;3.92;1.50;;;;;;;12.98;48.50;101070.81;1606373;88;21502;-60
2022/04/28 05:36:09;;;;;;;3.47;1.47;;;;;;;12.96;48.71;101070.69;1628789;88;21083;-61
2022/04/28 05:38:38;;;;;;;2.80;1.47;;;;;;;12.91;48.89;101069.90;1688855;84;21039;-61
2022/04/28 05:41:08;;;;;;;3.92;1.27;;;;;;;12.88;48.62;101059.30;1714388;84;21047;-60
2022/04/28 05:46:28;;;;;;;5.25;1.70;;;;;;;12.78;49.02;101068.39;1710262;83;21095;-61
2022/04/28 05:48:57;;;;;;;2.75;1.25;;;;;;;12.70;49.30;101062.50;1725644;81;21010;-61
2022/04/28 05:51:27;;;;;;;4.55;1.60;;;;;;;12.64;49.44;101062.43;1757743;80;21045;-62
2022/04/28 05:53:58;;;;;;;3.27;1.60;;;;;;;12.61;49.29;101069.69;1672734;85;21509;-62
2022/04/28 05:56:30;;;;;;;6.78;1.75;;;;;;;12.57;49.41;101062.88;1686938;85;21495;-61
2022/04/28 05:59:05;;;;;;;3.98;1.25;;;;;;;12.53;49.66;101064.31;1665060;85;21054;-63
2022/04/28 06:01:46;;;;;;;6.45;1.92;;;;;;;12.50;49.64;101068.83;1605659;89;21110;-62
2022/04/28 06:04:18;;;;;;;4.53;1.80;;;;;;;12.45;49.54;101072.67;1605412;89;21167;-61
2022/04/28 06:06:50;;;;;;;3.77;2.00;;;;;;;12.42;49.30;101075.29;1605672;89;21053;-62
2022/04/28 06:09:33;;;;;;;4.65;1.82;;;;;;;12.40;49.15;101082.03;1605423;89;21474;-62
2022/04/28 06:12:03;;;;;;;7.97;2.00;;;;;;;12.40;49.06;101078.76;1619456;85;21084;-62
2022/04/28 06:14:40;;;;;;;7.40;2.00;;;;;;;12.47;48.93;101083.81;1649545;87;21049;-61
2022/04/28 06:17:15;;;;;;;8.95;1.98;;;;;;;12.56;48.84;101081.80;1650627;87;21075;-63
2022/04/28 06:19:47;;;;;;;3.25;1.30;;;;;;;12.66;48.50;101080.95;1698846;82;21454;-62
2022/04/28 06:22:23;;;;;;;3.25;1.70;;;;;;;12.74;47.78;101080.83;1733448;81;21487;-61
2022/04/28 06:24:54;;;;;;;3.17;1.45;;;;;;;12.82;47.43;101081.23;1757896;81;21062;-61
2022/04/28 06:27:28;;;;;;;3.67;1.65;;;;;;;12.92;47.16;101080.38;1728175;81;21039;-62
2022/04/28 06:29:59;;;;;;;4.15;1.40;;;;;;;13.03;46.51;101087.28;1742180;82;21576;-61
2022/04/28 06:32:30;;;;;;;4.42;1.47;;;;;;;13.14;46.03;101098.61;1757931;81;21011;-63
2022/04/28 06:35:00;;;;;;;3.83;1.87;;;;;;;13.24;45.35;101084.55;1742245;82;21597;-63
2022/04/28 06:37:35;;;;;;;3.65;1.40;;;;;;;13.44;45.08;101088.31;1757833;81;21410;-61
2022/04/28 06:40:07;;;;;;;3.05;1.20;;;;;;;13.77;44.26;101091.34;1742366;82;21682;-60
2022/04/28 06:42:43;;;;;;;3.50;1.07;;;;;;;14.09;42.73;101092.59;1669082;85;21103;-61
2022/04/28 06:45:24;;;;;;;4.62;1.10;;;;;;;14.38;41.20;101090.64;1691526;84;21469;-62
2022/04/28 06:48:05;;;;;;;1.37;0.80;;;;;;;14.76;39.31;101096.52;1709566;84;21658;-62
2022/04/28 06:50:44;;;;;;;2.60;0.90;;;;;;;15.31;37.65;101099.50;1688912;84;21065;-62
2022/04/28 06:53:16;;;;;;;2.83;1.00;;;;;;;16.12;35.31;101094.57;1687092;84;21079;-62
2022/04/28 06:55:49;;;;;;;1.87;0.82;;;;;;;16.63;33.83;101090.14;1710198;84;21080;-62
2022/04/28 06:58:26;;;;;;;3.35;0.80;;;;;;;16.99;32.80;101095.95;1710062;84;21240;-63
2022/04/28 07:00:53;;;;;;;4.37;1.20;;;;;;;17.31;32.55;101098.70;1709976;84;21491;-62
2022/04/28 07:03:27;;;;;;;1.90;1.00;;;;;;;17.51;31.22;101105.47;1632368;86;21063;-62
2022/04/28 07:05:59;;;;;;;3.15;1.12;;;;;;;17.65;31.33;101114.01;1632993;87;21534;-62
2022/04/28 07:08:30;;;;;;;1.70;1.05;;;;;;;17.95;29.38;101114.17;1711701;84;21491;-61
2022/04/28 07:10:59;;;;;;;6.97;1.52;;;;;;;18.14;28.44;101109.50;1711720;84;21641;-61
2022/04/28 07:13:31;;;;;;;3.58;1.10;;;;;;;18.08;27.38;101106.25;1688278;84;21078;-61
2022/04/28 07:16:21;;;;;;;4.15;0.80;;;;;;;17.83;28.02;101112.70;1688568;85;21027;-63
2022/04/28 07:18:57;;;;;;;1.45;0.80;;;;;;;17.57;28.26;101114.30;1688441;85;21222;-62
2022/04/28 07:21:28;;;;;;;1.57;1.20;;;;;;;17.40;27.88;101105.13;1658397;85;21495;-61
2022/04/28 07:24:03;;;;;;;2.55;0.95;;;;;;;17.19;28.33;101111.58;1688547;85;21050;-62
2022/04/28 07:26:33;;;;;;;2.72;1.02;;;;;;;17.01;28.95;101109.58;1665747;85;21142;-61
2022/04/28 07:29:05;;;;;;;2.85;1.40;;;;;;;16.87;29.50;101117.61;1688247;85;21019;-60
2022/04/28 07:31:54;;;;;;;4.50;1.20;;;;;;;16.77;29.86;101116.17;1702140;84;21031;-61
2022/04/28 07:34:44;;;;;;;2.05;0.80;;;;;;;16.75;30.38;101116.08;1650036;87;21119;-60
2022/04/28 07:37:32;;;;;;;2.55;0.90;;;;;;;16.93;28.65;101118.14;1650406;87;21135;-59
2022/04/28 07:40:10;;;;;;;3.65;1.00;;;;;;;17.02;28.96;101116.27;1625039;87;21079;-61
2022/04/28 07:42:41;;;;;;;2.02;0.80;;;;;;;17.31;28.14;101114.79;1649456;86;21051;-61
2022/04/28 07:45:10;;;;;;;2.00;0.72;;;;;;;17.65;27.84;101112.63;1653344;85;21063;-63
2022/04/28 07:47:40;;;;;;;7.12;1.05;;;;;;;17.85;27.37;101116.62;1666082;84;21057;-62
2022/04/28 07:50:11;;;;;;;3.60;0.90;;;;;;;18.04;27.50;101113.65;1661822;85;21062;-65
2022/04/28 07:52:41;;;;;;;1.67;0.80;;;;;;;18.50;26.64;101117.00;1648616;85;21084;-61
2022/04/28 07:55:14;;;;;;;1.00;0.80;;;;;;;18.94;25.67;101123.62;1587526;89;21087;-64
2022/04/28 07:57:45;;;;;;;1.02;0.78;;;;;;;19.26;25.51;101117.27;1584625;90;21118;-62
2022/04/28 08:00:18;;;;;;;1.12;0.80;;;;;;;19.83;25.00;101114.87;1593651;89;21082;-63
2022/04/28 08:02:50;;;;;;;1.02;0.68;;;;;;;20.34;24.59;101121.63;1584238;90;21504;-62
2022/04/28 08:05:24;;;;;;;1.20;0.90;;;;;;;20.83;23.93;101127.73;1584369;90;21590;-61
2022/04/28 08:07:56;;;;;;;2.85;0.85;;;;;;;21.09;23.20;101124.35;1574738;89;21491;-60
2022/04/28 08:10:26;;;;;;;1.82;1.02;;;;;;;20.98;22.79;101122.47;1592743;89;21077;-62
2022/04/28 08:12:57;;;;;;;4.05;1.12;;;;;;;20.99;22.84;101119.13;1610801;86;21471;-62
2022/04/28 08:15:46;;;;;;;2.02;1.02;;;;;;;21.03;23.21;101124.50;1668249;86;21062;-61
2022/04/28 08:18:17;;;;;;;3.27;1.10;;;;;;;21.14;23.27;101124.45;1722688;80;21050;-62
2022/04/28 08:20:46;;;;;;;2.25;1.10;;;;;;;21.20;23.53;101127.63;1737075;80;21058;-62
2022/04/28 08:23:16;;;;;;;1.90;1.25;;;;;;;21.23;23.94;101118.50;1761419;80;21051;-62
2022/04/28 08:25:48;;;;;;;2.00;0.95;;;;;;;21.30;23.68;101120.58;1790003;80;21047;-61
2022/04/28 08:28:18;;;;;;;3.22;1.22;;;;;;;21.20;23.25;101131.81;1759826;80;21078;-63
2022/04/28 08:30:48;;;;;;;1.52;1.00;;;;;;;20.87;23.44;101126.14;1789933;80;21462;-60
2022/04/28 08:33:19;;;;;;;2.77;1.05;;;;;;;20.53;23.22;101134.87;1790140;80;21011;-65
2022/04/28 08:35:51;;;;;;;1.45;0.95;;;;;;;20.10;23.85;101131.06;1789926;80;21028;-60
2022/04/28 08:38:22;;;;;;;3.15;1.20;;;;;;;19.88;25.42;101125.27;1789802;80;21094;-61
2022/04/28 08:40:56;;;;;;;1.37;0.85;;;;;;;19.85;24.79;101140.50;1789927;80;21039;-61
2022/04/28 08:43:32;;;;;;;1.32;0.90;;;;;;;19.97;24.44;101121.03;1785795;80;21026;-61
2022/04/28 08:48:58;;;;;;;1.42;1.00;;;;;;;20.02;23.18;101132.28;1765178;80;21043;-63
2022/04/28 08:51:28;;;;;;;2.12;1.20;;;;;;;20.12;23.73;101137.23;1789904;80;21082;-64
2022/04/28 08:54:00;;;;;;;0.88;0.60;;;;;;;20.24;22.43;101135.32;1789460;80;21027;-60
2022/04/28 08:56:32;;;;;;;4.33;0.88;;;;;;;20.23;22.77;101125.28;1762225;80;21521;-64
2022/04/28 08:59:03;;;;;;;2.20;0.90;;;;;;;20.18;22.66;101126.02;1781382;80;21092;-60
2022/04/28 09:01:34;;;;;;;1.90;1.10;;;;;;;19.86;23.13;101122.73;1758697;81;21061;-63
2022/04/28 09:04:20;;;;;;;7.67;1.20;;;;;;;19.47;23.24;101126.13;1728510;81;21068;-60
2022/04/28 09:07:09;;;;;;;2.30;1.00;;;;;;;19.16;23.78;101114.76;1758601;81;21020;-63
2022/04/28 09:09:53;;;;;;;2.80;1.17;;;;;;;19.09;24.31;101123.19;1754864;80;21041;-61
2022/04/28 09:14:09;;;;;;;2.75;0.90;;;;;;;18.94;24.65;101122.23;1758542;81;21528;-61
2022/04/28 09:15:33;;;;;;;5.42;1.40;;;;;;;18.52;24.78;101126.78;1733763;81;21532;-60
2022/04/28 09:18:10;;;;;;;5.08;1.15;;;;;;;18.13;25.49;101121.13;1722109;83;21052;-60
2022/04/28 09:20:39;;;;;;;4.10;1.32;;;;;;;17.86;25.33;101117.78;1722608;83;21032;-62
2022/04/28 09:23:11;;;;;;;4.17;1.50;;;;;;;17.64;25.92;101117.86;1722792;83;21052;-61
2022/04/28 09:25:44;;;;;;;2.17;1.02;;;;;;;17.44;26.16;101118.84;1722669;83;21021;-61
2022/04/28 09:28:15;;;;;;;1.87;1.15;;;;;;;17.27;26.54;101117.70;1722773;83;21037;-61
2022/04/28 09:30:50;;;;;;;1.75;0.90;;;;;;;17.17;26.65;101117.34;1722429;82;21061;-63
2022/04/28 09:33:38;;;;;;;4.80;1.47;;;;;;;17.07;26.57;101117.84;1612080;88;21030;-60
2022/04/28 09:36:13;;;;;;;2.80;1.30;;;;;;;16.96;26.67;101119.08;1656583;82;21047;-60
2022/04/28 09:38:59;;;;;;;;;;;;;;;16.79;27.21;101116.80;1725243;83;21025;-62
2022/04/28 09:44:20;;;;;;;3.10;1.07;;;;;;;16.80;27.96;101121.27;1694440;83;21667;-61
2022/04/28 09:46:53;;;;;;;2.62;1.05;;;;;;;16.90;27.91;101116.63;1660301;86;21139;-59
2022/04/28 09:49:24;;;;;;;3.25;1.40;;;;;;;16.95;27.96;101110.47;1682511;85;21064;-62
2022/04/28 09:52:11;;;;;;;1.85;1.20;;;;;;;16.94;27.65;101101.31;1682816;85;21111;-60
2022/04/28 09:55:03;;;;;;;3.75;1.37;;;;;;;16.90;28.14;101110.25;1649613;87;21059;-61
2022/04/28 09:57:37;;;;;;;2.10;1.35;;;;;;;16.96;28.25;101099.70;1658497;85;21049;-60
2022/04/28 10:00:10;;;;;;;4.72;1.40;;;;;;;17.01;28.61;101092.95;1682980;85;21104;-60
2022/04/28 10:02:41;;;;;;;3.42;1.52;;;;;;;17.07;28.55;101090.14;1683140;85;21106;-61
2022/04/28 10:05:11;;;;;;;3.52;1.77;;;;;;;17.16;28.14;101085.72;1683219;85;21043;-60
2022/04/28 10:07:44;;;;;;;5.22;1.70;;;;;;;17.16;28.54;101089.34;1683009;85;21055;-60
2022/04/28 10:10:14;;;;;;;4.00;1.32;;;;;;;17.21;27.95;101093.66;1682923;85;21051;-61
2022/04/28 10:12:44;;;;;;;2.47;1.50;;;;;;;17.21;28.23;101090.05;1740608;82;21070;-63
2022/04/28 10:15:17;;;;;;;3.60;1.50;;;;;;;17.21;28.22;101089.52;1679726;85;21039;-61
2022/04/28 10:18:00;;;;;;;3.12;1.52;;;;;;;17.19;28.36;101087.50;1683212;85;21090;-59
2022/04/28 10:20:38;;;;;;;4.55;1.98;;;;;;;17.19;28.39;101087.50;1683221;84;21063;-61
2022/04/28 10:23:12;;;;;;;5.60;1.98;;;;;;;17.19;29.07;101094.42;1680851;85;21055;-62
2022/04/28 10:35:04;;;;;;;2.30;1.52;;;;;;;17.24;29.14;101080.75;1736951;82;21078;-59
2022/04/28 10:37:42;;;;;;;6.22;1.90;;;;;;;17.34;29.20;101081.09;1707844;82;21027;-62
2022/04/28 10:40:16;;;;;;;6.80;2.12;;;;;;;17.40;29.00;101071.88;1737220;82;21121;-60
2022/04/28 10:42:52;;;;;;;4.17;1.62;;;;;;;17.40;29.09;101070.50;1737090;82;21456;-62
2022/04/28 10:45:25;;;;;;;3.30;1.30;;;;;;;17.43;29.00;101067.27;1736903;82;21028;-59
2022/04/28 10:48:32;;;;;;;4.75;1.42;;;;;;;17.52;29.04;101076.69;1736664;82;21047;-61
2022/04/28 10:51:15;;;;;;;1.02;0.90;;;;;;;17.54;28.63;101071.23;1736992;82;21055;-61
2022/04/28 10:54:05;;;;;;;3.15;1.30;;;;;;;17.61;28.46;101074.81;1716161;82;21448;-60
2022/04/28 10:56:54;;;;;;;3.47;1.25;;;;;;;17.63;28.47;101069.89;1736996;82;21024;-60
2022/04/28 10:59:34;;;;;;;4.28;1.30;;;;;;;17.65;28.73;101062.73;1743071;82;21404;-59
2022/04/28 11:02:16;;;;;;;2.47;1.02;;;;;;;17.71;28.57;101062.70;1752326;82;21035;-59
2022/04/28 11:05:00;;;;;;;3.27;1.30;;;;;;;17.75;28.61;101063.09;1709706;84;21214;-61
2022/04/28 11:07:31;;;;;;;3.47;1.20;;;;;;;17.74;28.50;101060.02;1709662;84;21031;-61
2022/04/28 11:10:04;;;;;;;;;;;;;;;17.73;28.44;101048.61;1712299;84;21035;-59
2022/04/28 11:12:39;;;;;;;2.95;1.10;;;;;;;17.76;28.71;101052.31;1650665;86;20168;-59
2022/04/28 11:15:13;;;;;;;3.45;1.02;;;;;;;17.77;28.80;101051.23;1640492;87;21019;-62
2022/04/28 11:17:48;;;;;;;2.37;1.20;;;;;;;17.76;28.46;101048.16;1624262;87;21063;-61
2022/04/28 11:20:16;;;;;;;3.30;1.22;;;;;;;17.72;28.21;101041.38;1633905;87;21548;-60
2022/04/28 11:22:51;;;;;;;3.52;1.07;;;;;;;17.69;28.98;101041.83;1629064;87;21491;-60
2022/04/28 11:25:22;;;;;;;5.92;1.82;;;;;;;17.68;28.58;101040.98;1628755;88;21091;-60
2022/04/28 11:27:55;;;;;;;2.60;1.07;;;;;;;17.67;28.46;101044.83;1628686;88;21071;-60
2022/04/28 11:30:26;;;;;;;4.53;1.80;;;;;;;17.67;28.86;101037.91;1716420;81;21028;-59
2022/04/28 11:32:59;;;;;;;2.40;1.10;;;;;;;17.73;28.67;101043.92;1767423;81;21012;-61
2022/04/28 11:35:35;;;;;;;2.52;1.10;;;;;;;17.75;28.79;101027.05;1767528;80;21032;-59
2022/04/28 11:38:07;;;;;;;4.12;1.87;;;;;;;17.74;28.62;101030.91;1660478;85;21055;-61
2022/04/28 11:40:39;;;;;;;2.60;1.00;;;;;;;17.70;28.36;101031.91;1682722;85;21042;-61
2022/04/28 11:43:10;;;;;;;4.45;1.40;;;;;;;17.66;28.22;101020.08;1683009;85;21127;-59
2022/04/28 11:45:40;;;;;;;3.47;1.30;;;;;;;17.62;28.42;101021.62;1682998;85;21011;-59
2022/04/28 11:48:13;;;;;;;2.52;1.22;;;;;;;17.66;28.96;101025.62;1609142;88;21114;-61
2022/04/28 11:50:52;;;;;;;3.67;1.55;;;;;;;17.68;28.43;101016.58;1624597;88;21055;-59
2022/04/28 11:53:23;;;;;;;3.70;1.50;;;;;;;17.53;28.64;101014.64;1624627;88;21113;-61
2022/04/28 11:55:55;;;;;;;6.85;1.95;;;;;;;17.43;29.32;101011.86;1603801;88;21062;-60
2022/04/28 11:58:24;;;;;;;3.70;1.57;;;;;;;17.43;29.07;101011.02;1624598;88;21111;-58
2022/04/28 12:00:54;;;;;;;3.60;1.52;;;;;;;17.46;29.50;101006.94;1624539;88;21059;-59
2022/04/28 12:03:30;;;;;;;4.72;1.50;;;;;;;17.47;29.52;101003.09;1647920;84;21063;-61
2022/04/28 12:05:59;;;;;;;1.92;1.30;;;;;;;17.51;29.65;101007.95;1713006;84;21034;-59
2022/04/28 12:08:28;;;;;;;5.35;1.60;;;;;;;17.52;29.07;101000.48;1712979;84;21063;-60
2022/04/28 12:19:26;;;;;;;4.33;1.85;;;;;;;17.41;29.66;101004.85;1619307;88;21475;-61
2022/04/28 12:22:07;;;;;;;6.03;1.87;;;;;;;17.36;29.87;101003.30;1644095;87;21081;-58
2022/04/28 12:24:34;;;;;;;3.05;1.62;;;;;;;17.32;29.61;101002.91;1653028;87;21099;-59
2022/04/28 12:27:07;;;;;;;5.67;2.05;;;;;;;17.29;29.44;101003.36;1653043;87;21158;-59
2022/04/28 12:29:58;;;;;;;3.62;1.85;;;;;;;17.27;29.71;101004.67;1653370;87;21105;-60
2022/04/28 12:32:29;;;;;;;3.75;1.40;;;;;;;17.27;29.67;101005.52;1652900;85;21083;-60
2022/04/28 12:35:03;;;;;;;5.42;1.52;;;;;;;17.26;30.06;101001.05;1645538;84;21466;-59
2022/04/28 12:37:38;;;;;;;2.17;1.30;;;;;;;17.27;30.40;101002.74;1659625;86;21110;-60
2022/04/28 12:40:12;;;;;;;4.37;1.70;;;;;;;17.31;30.10;100998.98;1659804;86;21070;-58